createdAt,value
2018-11-25T00:00:34.361Z,4.90
2018-11-25T00:03:02.953Z,4.90
2018-11-25T00:05:31.331Z,4.90
2018-11-25T00:08:00.086Z,4.90
2018-11-25T00:10:28.727Z,4.90
2018-11-25T00:12:57.168Z,4.90
2018-11-25T00:15:25.634Z,4.90
2018-11-25T00:17:54.156Z,4.70
2018-11-25T00:20:22.624Z,4.70
2018-11-25T00:22:51.344Z,4.60
2018-11-25T00:25:20.006Z,4.60
2018-11-25T00:27:48.507Z,4.50
2018-11-25T00:30:17.066Z,4.50
2018-11-25T00:32:45.544Z,4.50
2018-11-25T00:35:15.107Z,4.50
2018-11-25T00:37:48.360Z,4.50
2018-11-25T00:40:13.005Z,4.50
2018-11-25T00:42:41.509Z,4.60
2018-11-25T00:45:12.248Z,4.60
2018-11-25T00:47:40.834Z,4.70
2018-11-25T00:50:11.599Z,4.70
2018-11-25T00:52:40.247Z,4.70
2018-11-25T00:55:13.685Z,4.80
2018-11-25T00:57:42.148Z,4.80
2018-11-25T01:00:14.576Z,4.80
2018-11-25T01:02:45.631Z,4.90
2018-11-25T01:05:14.511Z,4.90
2018-11-25T01:07:43.008Z,4.90
2018-11-25T01:10:12.646Z,4.90
2018-11-25T01:12:41.552Z,5.00
2018-11-25T01:15:13.412Z,5.10
2018-11-25T01:17:41.930Z,5.10
2018-11-25T01:20:12.405Z,5.10
2018-11-25T01:22:40.970Z,5.20
2018-11-25T01:25:10.447Z,5.20
2018-11-25T01:27:38.860Z,5.20
2018-11-25T01:30:11.739Z,5.10
2018-11-25T01:32:40.239Z,5.00
2018-11-25T01:35:10.355Z,4.90
2018-11-25T01:37:38.811Z,4.90
2018-11-25T01:40:09.890Z,5.00
2018-11-25T01:42:38.534Z,5.00
2018-11-25T01:45:10.492Z,4.90
2018-11-25T01:47:39.059Z,4.90
2018-11-25T01:50:11.677Z,5.00
2018-11-25T01:52:40.140Z,5.00
2018-11-25T01:55:10.043Z,5.00
2018-11-25T01:57:38.605Z,4.90
2018-11-25T02:00:15.405Z,4.90
2018-11-25T02:02:43.873Z,4.90
2018-11-25T02:05:12.332Z,4.90
2018-11-25T02:07:40.723Z,5.00
2018-11-25T02:10:12.029Z,4.90
2018-11-25T02:12:40.685Z,5.00
2018-11-25T02:15:10.409Z,5.00
2018-11-25T02:17:38.994Z,5.10
2018-11-25T02:20:13.001Z,5.10
2018-11-25T02:22:41.556Z,5.10
2018-11-25T02:25:10.135Z,5.10
2018-11-25T02:27:38.612Z,5.10
2018-11-25T02:30:09.658Z,5.00
2018-11-25T02:32:38.138Z,4.90
2018-11-25T02:35:08.348Z,4.90
2018-11-25T02:37:36.894Z,4.80
2018-11-25T02:40:13.225Z,4.70
2018-11-25T02:42:41.656Z,4.60
2018-11-25T02:45:14.372Z,4.50
2018-11-25T02:47:42.773Z,4.40
2018-11-25T02:50:29.746Z,4.30
2018-11-25T02:52:59.324Z,4.20
2018-11-25T02:55:28.001Z,4.20
2018-11-25T02:57:56.419Z,4.10
2018-11-25T03:00:24.890Z,4.10
2018-11-25T03:02:53.395Z,4.00
2018-11-25T03:05:21.919Z,4.00
2018-11-25T03:07:50.443Z,4.00
2018-11-25T03:10:18.935Z,3.90
2018-11-25T03:12:47.424Z,3.80
2018-11-25T03:15:16.890Z,3.70
2018-11-25T03:17:45.488Z,3.60
2018-11-25T03:20:15.734Z,3.60
2018-11-25T03:22:44.170Z,3.60
2018-11-25T03:25:16.773Z,3.60
2018-11-25T03:27:45.326Z,3.60
2018-11-25T03:30:16.717Z,3.40
2018-11-25T03:32:45.861Z,3.50
2018-11-25T03:35:14.517Z,3.50
2018-11-25T03:37:42.933Z,3.50
2018-11-25T03:40:12.358Z,3.50
2018-11-25T03:42:40.763Z,3.40
2018-11-25T03:45:12.275Z,3.40
2018-11-25T03:47:40.689Z,3.50
2018-11-25T03:50:10.056Z,3.50
2018-11-25T03:52:38.458Z,3.60
2018-11-25T03:55:08.671Z,3.60
2018-11-25T03:57:37.233Z,3.60
2018-11-25T04:00:08.783Z,3.60
2018-11-25T04:02:37.209Z,3.50
2018-11-25T04:05:07.479Z,3.50
2018-11-25T04:07:36.079Z,3.40
2018-11-25T04:10:05.477Z,3.20
2018-11-25T04:12:33.912Z,3.20
2018-11-25T04:15:02.377Z,3.30
2018-11-25T04:17:31.272Z,3.40
2018-11-25T04:19:59.704Z,3.50
2018-11-25T04:22:28.170Z,3.50
2018-11-25T04:24:56.669Z,3.60
2018-11-25T04:27:25.103Z,3.60
2018-11-25T04:29:53.655Z,3.60
2018-11-25T04:32:22.107Z,3.60
2018-11-25T04:34:50.534Z,3.50
2018-11-25T04:37:18.975Z,3.50
2018-11-25T04:39:47.401Z,3.50
2018-11-25T04:42:15.914Z,3.50
2018-11-25T04:44:44.318Z,3.40
2018-11-25T04:47:12.860Z,3.40
2018-11-25T04:49:41.289Z,3.40
2018-11-25T04:52:09.724Z,3.50
2018-11-25T04:54:38.156Z,3.50
2018-11-25T04:57:06.802Z,3.50
2018-11-25T04:59:35.262Z,3.60
2018-11-25T05:02:03.725Z,3.50
2018-11-25T05:04:32.184Z,3.50
2018-11-25T05:07:00.647Z,3.50
2018-11-25T05:09:29.055Z,3.40
2018-11-25T05:11:57.518Z,3.50
2018-11-25T05:14:25.940Z,3.40
2018-11-25T05:16:54.352Z,3.40
2018-11-25T05:19:22.822Z,3.50
2018-11-25T05:21:51.276Z,3.50
2018-11-25T05:24:19.704Z,3.50
2018-11-25T05:26:48.146Z,3.60
2018-11-25T05:29:16.546Z,3.60
2018-11-25T05:31:44.987Z,3.60
2018-11-25T05:34:13.467Z,3.60
2018-11-25T05:36:41.901Z,3.70
2018-11-25T05:39:10.361Z,3.70
2018-11-25T05:41:38.815Z,3.70
2018-11-25T05:44:07.251Z,3.70
2018-11-25T05:46:35.816Z,3.70
2018-11-25T05:49:04.358Z,3.70
2018-11-25T05:51:32.780Z,3.60
2018-11-25T05:54:01.200Z,3.60
2018-11-25T05:56:29.815Z,3.60
2018-11-25T05:58:58.287Z,3.60
2018-11-25T06:01:26.765Z,3.60
2018-11-25T06:03:55.193Z,3.60
2018-11-25T06:06:23.593Z,3.60
2018-11-25T06:08:52.010Z,3.60
2018-11-25T06:11:20.549Z,3.60
2018-11-25T06:13:48.977Z,3.60
2018-11-25T06:16:17.396Z,3.60
2018-11-25T06:18:46.004Z,3.60
2018-11-25T06:21:14.479Z,3.50
2018-11-25T06:23:42.952Z,3.40
2018-11-25T06:26:11.358Z,3.50
2018-11-25T06:28:39.797Z,3.50
2018-11-25T06:31:08.304Z,3.50
2018-11-25T06:33:36.745Z,3.50
2018-11-25T06:36:05.619Z,3.40
2018-11-25T06:38:34.065Z,3.30
2018-11-25T06:41:02.486Z,3.20
2018-11-25T06:43:31.132Z,3.10
2018-11-25T06:45:59.556Z,3.20
2018-11-25T06:48:28.134Z,3.10
2018-11-25T06:50:56.608Z,3.20
2018-11-25T06:53:25.044Z,3.20
2018-11-25T06:55:54.223Z,3.30
2018-11-25T06:58:22.720Z,3.20
2018-11-25T07:00:51.172Z,3.20
2018-11-25T07:03:20.100Z,3.30
2018-11-25T07:05:48.508Z,3.30
2018-11-25T07:08:17.049Z,3.40
2018-11-25T07:10:45.519Z,3.40
2018-11-25T07:13:13.984Z,3.40
2018-11-25T07:15:42.403Z,3.50
2018-11-25T07:18:10.970Z,3.50
2018-11-25T07:20:39.555Z,3.50
2018-11-25T07:23:08.033Z,3.50
2018-11-25T07:25:36.469Z,3.60
2018-11-25T07:28:17.996Z,3.60
2018-11-25T07:30:33.758Z,3.60
2018-11-25T07:33:02.432Z,3.60
2018-11-25T07:35:30.931Z,3.60
2018-11-25T07:37:59.379Z,3.70
2018-11-25T07:40:27.799Z,3.70
2018-11-25T07:42:56.339Z,3.70
2018-11-25T07:45:30.738Z,3.70
2018-11-25T07:47:54.127Z,2.90
2018-11-25T07:50:22.547Z,3.80
2018-11-25T07:52:51.513Z,3.80
2018-11-25T07:55:22.228Z,3.80
2018-11-25T07:57:51.657Z,3.80
2018-11-25T08:00:21.068Z,3.80
2018-11-25T08:02:49.472Z,3.70
2018-11-25T08:05:18.968Z,3.70
2018-11-25T08:07:47.412Z,3.70
2018-11-25T08:10:16.505Z,3.70
2018-11-25T08:12:45.480Z,3.80
2018-11-25T08:15:16.856Z,3.70
2018-11-25T08:17:45.318Z,3.50
2018-11-25T08:20:16.834Z,3.50
2018-11-25T08:22:45.485Z,3.60
2018-11-25T08:25:16.067Z,3.60
2018-11-25T08:27:44.579Z,3.70
2018-11-25T08:30:17.293Z,3.70
2018-11-25T08:32:45.914Z,3.70
2018-11-25T08:35:15.101Z,3.80
2018-11-25T08:37:43.569Z,3.80
2018-11-25T08:40:13.224Z,3.80
2018-11-25T08:42:41.917Z,3.80
2018-11-25T08:45:11.401Z,3.80
2018-11-25T08:47:39.895Z,3.90
2018-11-25T08:50:10.182Z,4.00
2018-11-25T08:52:39.131Z,4.00
2018-11-25T08:55:15.507Z,4.00
2018-11-25T08:57:43.996Z,4.00
2018-11-25T09:00:16.703Z,4.00
2018-11-25T09:02:45.322Z,4.00
2018-11-25T09:05:14.747Z,4.00
2018-11-25T09:07:43.417Z,3.90
2018-11-25T09:10:13.904Z,4.00
2018-11-25T09:12:42.740Z,4.00
2018-11-25T09:15:14.454Z,4.00
2018-11-25T09:17:44.652Z,3.90
2018-11-25T09:20:19.101Z,3.90
2018-11-25T09:22:47.517Z,4.00
2018-11-25T09:25:17.106Z,4.00
2018-11-25T09:27:45.551Z,4.10
2018-11-25T09:30:18.140Z,4.10
2018-11-25T09:32:46.585Z,4.20
2018-11-25T09:35:15.145Z,4.30
2018-11-25T09:37:43.604Z,4.40
2018-11-25T09:40:15.484Z,4.50
2018-11-25T09:42:44.037Z,4.60
2018-11-25T09:45:15.283Z,4.60
2018-11-25T09:47:44.301Z,4.70
2018-11-25T09:50:15.706Z,4.70
2018-11-25T09:52:44.138Z,4.70
2018-11-25T09:55:18.637Z,4.70
2018-11-25T09:57:48.197Z,4.80
2018-11-25T10:00:21.809Z,4.80
2018-11-25T10:02:50.320Z,4.70
2018-11-25T10:05:19.359Z,4.70
2018-11-25T10:07:48.111Z,4.70
2018-11-25T10:10:18.795Z,4.70
2018-11-25T10:12:47.572Z,4.70
2018-11-25T10:15:17.460Z,4.70
2018-11-25T10:17:45.923Z,4.80
2018-11-25T10:20:15.607Z,4.70
2018-11-25T10:22:44.716Z,4.70
2018-11-25T10:25:13.958Z,4.80
2018-11-25T10:27:42.497Z,4.90
2018-11-25T10:30:12.525Z,4.90
2018-11-25T10:32:42.339Z,4.90
2018-11-25T10:35:09.834Z,4.90
2018-11-25T10:37:38.386Z,4.90
2018-11-25T10:40:11.204Z,5.10
2018-11-25T10:42:39.685Z,5.10
2018-11-25T10:45:13.189Z,5.20
2018-11-25T10:47:41.708Z,5.20
2018-11-25T10:50:12.269Z,5.20
2018-11-25T10:52:40.745Z,5.20
2018-11-25T10:55:10.376Z,5.20
2018-11-25T10:57:39.388Z,5.20
2018-11-25T11:02:41.545Z,5.30
2018-11-25T11:05:10.150Z,5.20
2018-11-25T11:07:45.048Z,5.10
2018-11-25T11:10:13.505Z,5.00
2018-11-25T11:12:41.969Z,5.00
2018-11-25T11:15:11.461Z,5.00
2018-11-25T11:17:39.926Z,5.00
2018-11-25T11:20:09.690Z,5.00
2018-11-25T11:22:38.480Z,5.00
2018-11-25T11:25:08.373Z,5.00
2018-11-25T11:27:36.898Z,5.00
2018-11-25T11:30:07.862Z,4.90
2018-11-25T11:32:36.720Z,5.10
2018-11-25T11:35:06.254Z,5.20
2018-11-25T11:37:34.836Z,5.30
2018-11-25T11:40:03.692Z,5.20
2018-11-25T11:42:32.189Z,5.30
2018-11-25T11:45:00.624Z,5.30
2018-11-25T11:47:29.097Z,5.30
2018-11-25T11:49:57.728Z,5.30
2018-11-25T11:52:26.394Z,5.30
2018-11-25T11:54:55.023Z,5.40
2018-11-25T11:57:23.567Z,5.50
2018-11-25T11:59:52.022Z,5.50
2018-11-25T12:02:21.155Z,5.50
2018-11-25T12:04:50.125Z,5.60
2018-11-25T12:07:18.845Z,5.60
2018-11-25T12:09:47.283Z,5.60
2018-11-25T12:12:15.793Z,5.60
2018-11-25T12:14:44.392Z,5.60
2018-11-25T12:17:12.934Z,5.70
2018-11-25T12:19:41.931Z,5.70
2018-11-25T12:22:10.360Z,5.70
2018-11-25T12:24:38.938Z,5.80
2018-11-25T12:27:07.504Z,5.80
2018-11-25T12:29:35.981Z,5.80
2018-11-25T12:32:04.416Z,5.90
2018-11-25T12:34:32.866Z,5.90
2018-11-25T12:37:01.285Z,5.90
2018-11-25T12:39:29.869Z,5.90
2018-11-25T12:41:58.418Z,5.90
2018-11-25T12:44:29.305Z,5.90
2018-11-25T12:46:55.485Z,5.90
2018-11-25T12:49:23.982Z,6.00
2018-11-25T12:51:52.546Z,6.00
2018-11-25T12:54:21.188Z,6.00
2018-11-25T12:56:51.776Z,6.00
2018-11-25T12:59:18.200Z,6.00
2018-11-25T13:01:46.650Z,6.10
2018-11-25T13:04:15.157Z,6.00
2018-11-25T13:06:43.707Z,6.00
2018-11-25T13:09:12.150Z,6.00
2018-11-25T13:11:40.569Z,6.00
2018-11-25T13:14:09.171Z,6.00
2018-11-25T13:16:37.760Z,6.10
2018-11-25T13:19:06.272Z,6.20
2018-11-25T13:21:34.738Z,6.20
2018-11-25T13:24:03.215Z,6.10
2018-11-25T13:26:31.676Z,6.30
2018-11-25T13:29:00.120Z,6.30
2018-11-25T13:31:28.784Z,6.30
2018-11-25T13:33:57.292Z,5.40
2018-11-25T13:36:25.731Z,6.30
2018-11-25T13:38:54.731Z,6.30
2018-11-25T13:41:23.206Z,6.20
2018-11-25T13:43:51.691Z,6.20
2018-11-25T13:46:20.163Z,6.20
2018-11-25T13:48:48.605Z,6.20
2018-11-25T13:51:17.122Z,6.30
2018-11-25T13:53:45.546Z,6.30
2018-11-25T13:56:14.375Z,6.30
2018-11-25T13:58:42.864Z,6.30
2018-11-25T14:01:11.642Z,6.40
2018-11-25T14:03:42.006Z,6.40
2018-11-25T14:06:13.229Z,6.40
2018-11-25T14:08:42.110Z,6.30
2018-11-25T14:11:12.125Z,6.40
2018-11-25T14:13:40.568Z,6.40
2018-11-25T14:16:10.615Z,6.40
2018-11-25T14:18:39.164Z,6.50
2018-11-25T14:21:07.580Z,6.50
2018-11-25T14:23:36.009Z,6.60
2018-11-25T14:26:08.979Z,6.60
2018-11-25T14:28:37.560Z,6.60
2018-11-25T14:31:06.444Z,6.60
2018-11-25T14:33:34.860Z,6.50
2018-11-25T14:36:03.292Z,6.50
2018-11-25T14:38:31.748Z,6.50
2018-11-25T14:41:00.268Z,6.50
2018-11-25T14:43:28.874Z,6.50
2018-11-25T14:45:57.461Z,6.50
2018-11-25T14:48:26.050Z,6.50
2018-11-25T14:50:54.490Z,6.50
2018-11-25T14:53:22.925Z,6.50
2018-11-25T14:55:51.442Z,6.40
2018-11-25T14:58:19.848Z,6.50
2018-11-25T15:00:48.344Z,6.50
2018-11-25T15:03:16.776Z,6.50
2018-11-25T15:05:46.540Z,6.40
2018-11-25T15:08:22.611Z,6.50
2018-11-25T15:10:51.339Z,6.40
2018-11-25T15:13:19.825Z,6.40
2018-11-25T15:15:48.556Z,6.40
2018-11-25T15:18:17.043Z,6.40
2018-11-25T15:20:45.620Z,6.30
2018-11-25T15:23:14.994Z,6.30
2018-11-25T15:25:48.253Z,6.20
2018-11-25T15:28:16.790Z,6.10
2018-11-25T15:30:45.389Z,6.00
2018-11-25T15:33:13.813Z,5.90
2018-11-25T15:35:42.367Z,5.90
2018-11-25T15:38:11.041Z,6.00
2018-11-25T15:40:39.944Z,6.00
2018-11-25T15:43:09.395Z,6.00
2018-11-25T15:45:37.916Z,6.00
2018-11-25T15:48:10.135Z,6.00
2018-11-25T15:50:38.767Z,6.00
2018-11-25T15:53:08.520Z,6.00
2018-11-25T15:55:37.004Z,6.00
2018-11-25T15:58:05.950Z,5.90
2018-11-25T16:00:34.635Z,5.90
2018-11-25T16:03:03.198Z,5.90
2018-11-25T16:05:32.900Z,5.80
2018-11-25T16:08:01.340Z,5.90
2018-11-25T16:10:29.931Z,5.90
2018-11-25T16:12:58.436Z,5.90
2018-11-25T16:15:28.064Z,5.90
2018-11-25T16:17:57.001Z,5.90
2018-11-25T16:20:26.747Z,6.00
2018-11-25T16:22:58.583Z,6.00
2018-11-25T16:25:30.566Z,6.00
2018-11-25T16:28:06.636Z,6.00
2018-11-25T16:30:35.209Z,6.00
2018-11-25T16:33:03.668Z,6.00
2018-11-25T16:35:32.136Z,6.00
2018-11-25T16:38:00.597Z,6.00
2018-11-25T16:40:29.118Z,6.00
2018-11-25T16:42:57.555Z,6.00
2018-11-25T16:45:26.105Z,6.00
2018-11-25T16:47:54.511Z,6.00
2018-11-25T16:50:25.262Z,6.00
2018-11-25T16:52:51.419Z,6.00
2018-11-25T16:55:19.935Z,6.00
2018-11-25T16:57:48.505Z,6.00
2018-11-25T17:00:18.179Z,5.90
2018-11-25T17:02:46.846Z,5.80
2018-11-25T17:05:25.934Z,5.80
2018-11-25T17:07:59.603Z,5.80
2018-11-25T17:10:28.093Z,5.70
2018-11-25T17:12:56.539Z,5.70
2018-11-25T17:15:26.895Z,5.60
2018-11-25T17:17:55.443Z,5.70
2018-11-25T17:20:23.894Z,5.70
2018-11-25T17:22:52.482Z,5.70
2018-11-25T17:25:20.925Z,5.70
2018-11-25T17:27:49.493Z,5.70
2018-11-25T17:30:18.922Z,5.70
2018-11-25T17:32:48.110Z,5.70
2018-11-25T17:35:21.134Z,5.80
2018-11-25T17:37:49.824Z,5.80
2018-11-25T17:40:18.276Z,5.80
2018-11-25T17:42:46.740Z,5.70
2018-11-25T17:45:15.185Z,5.60
2018-11-25T17:47:43.836Z,5.60
2018-11-25T17:50:30.482Z,5.60
2018-11-25T17:52:59.011Z,5.60
2018-11-25T17:55:28.500Z,5.70
2018-11-25T17:57:57.209Z,5.70
2018-11-25T18:00:39.610Z,5.70
2018-11-25T18:03:13.219Z,5.70
2018-11-25T18:05:41.654Z,5.70
2018-11-25T18:08:10.253Z,5.70
2018-11-25T18:10:38.838Z,5.80
2018-11-25T18:13:07.420Z,5.80
2018-11-25T18:15:35.860Z,5.90
2018-11-25T18:18:10.390Z,5.90
2018-11-25T18:20:54.025Z,5.90
2018-11-25T18:23:22.478Z,5.90
2018-11-25T18:25:51.861Z,5.90
2018-11-25T18:28:20.389Z,5.90
2018-11-25T18:30:48.760Z,5.90
2018-11-25T18:33:17.252Z,5.90
2018-11-25T18:35:45.665Z,5.90
2018-11-25T18:38:14.267Z,5.90
2018-11-25T18:40:42.698Z,5.90
2018-11-25T18:43:11.820Z,5.90
2018-11-25T18:45:40.243Z,5.90
2018-11-25T18:48:11.295Z,5.90
2018-11-25T18:50:40.839Z,5.70
2018-11-25T18:53:10.183Z,5.70
2018-11-25T18:55:37.597Z,5.70
2018-11-25T18:58:06.243Z,5.70
2018-11-25T19:00:45.736Z,5.70
2018-11-25T19:03:14.264Z,5.70
2018-11-25T19:05:43.356Z,5.70
2018-11-25T19:08:11.815Z,5.60
2018-11-25T19:10:40.582Z,5.60
2018-11-25T19:13:09.049Z,5.60
2018-11-25T19:15:37.970Z,5.60
2018-11-25T19:18:08.136Z,5.60
2018-11-25T19:20:36.568Z,5.70
2018-11-25T19:23:05.231Z,5.70
2018-11-25T19:25:33.729Z,5.70
2018-11-25T19:28:02.592Z,5.80
2018-11-25T19:30:32.081Z,5.80
2018-11-25T19:33:00.638Z,5.80
2018-11-25T19:35:29.207Z,5.70
2018-11-25T19:37:57.817Z,5.70
2018-11-25T19:40:27.019Z,5.70
2018-11-25T19:42:55.569Z,5.70
2018-11-25T19:45:25.529Z,5.60
2018-11-25T19:47:54.957Z,5.60
2018-11-25T19:50:29.698Z,5.60
2018-11-25T19:52:58.186Z,5.60
2018-11-25T19:55:26.609Z,5.60
2018-11-25T19:57:55.449Z,5.50
2018-11-25T20:00:24.931Z,5.50
2018-11-25T20:02:53.468Z,5.60
2018-11-25T20:05:22.003Z,5.60
2018-11-25T20:07:50.589Z,5.60
2018-11-25T20:10:20.314Z,5.60
2018-11-25T20:12:56.735Z,4.70
2018-11-25T20:15:25.346Z,5.50
2018-11-25T20:17:54.923Z,5.50
2018-11-25T20:20:25.395Z,5.50
2018-11-25T20:22:54.644Z,5.50
2018-11-25T20:25:23.345Z,5.50
2018-11-25T20:27:53.939Z,5.50
2018-11-25T20:30:26.726Z,5.50
2018-11-25T20:33:59.046Z,5.50
2018-11-25T20:36:28.188Z,5.50
2018-11-25T20:39:02.129Z,5.40
2018-11-25T20:41:30.850Z,5.40
2018-11-25T20:43:59.550Z,5.40
2018-11-25T20:46:34.401Z,5.30
2018-11-25T20:49:03.094Z,5.30
2018-11-25T20:51:37.055Z,5.30
2018-11-25T20:54:05.721Z,5.30
2018-11-25T20:56:34.232Z,5.30
2018-11-25T20:59:02.800Z,5.30
2018-11-25T21:01:31.347Z,5.30
2018-11-25T21:04:00.131Z,5.30
2018-11-25T21:06:28.942Z,5.20
2018-11-25T21:08:57.741Z,5.20
2018-11-25T21:11:26.679Z,5.20
2018-11-25T21:13:55.682Z,5.20
2018-11-25T21:16:24.463Z,5.20
2018-11-25T21:18:59.547Z,5.20
2018-11-25T21:21:28.047Z,5.20
2018-11-25T21:23:56.644Z,5.20
2018-11-25T21:26:25.379Z,5.20
2018-11-25T21:31:31.583Z,5.10
2018-11-25T21:34:00.099Z,5.10
2018-11-25T21:36:28.532Z,5.10
2018-11-25T21:38:57.093Z,5.20
2018-11-25T21:41:26.091Z,5.10
2018-11-25T21:43:54.564Z,5.10
2018-11-25T21:46:23.182Z,5.20
2018-11-25T21:48:51.717Z,5.20
2018-11-25T21:51:20.378Z,5.20
2018-11-25T21:53:48.857Z,5.20
2018-11-25T21:56:17.696Z,5.20
2018-11-25T21:58:46.280Z,5.20
2018-11-25T22:01:14.736Z,5.30
2018-11-25T22:03:43.431Z,5.30
2018-11-25T22:06:12.028Z,5.30
2018-11-25T22:08:40.477Z,5.30
2018-11-25T22:11:08.939Z,5.30
2018-11-25T22:13:37.432Z,5.30
2018-11-25T22:16:06.173Z,5.30
2018-11-25T22:18:34.646Z,5.30
2018-11-25T22:21:03.112Z,5.30
2018-11-25T22:23:31.632Z,5.30
2018-11-25T22:26:00.215Z,5.30
2018-11-25T22:28:28.688Z,5.30
2018-11-25T22:30:57.150Z,5.20
2018-11-25T22:33:25.621Z,5.30
2018-11-25T22:35:54.112Z,5.30
2018-11-25T22:38:24.822Z,5.30
2018-11-25T22:40:53.417Z,5.40
2018-11-25T22:43:21.905Z,5.40
2018-11-25T22:45:50.371Z,5.40
2018-11-25T22:48:18.833Z,5.40
2018-11-25T22:50:47.333Z,5.40
2018-11-25T22:53:15.801Z,5.40
2018-11-25T22:55:44.420Z,5.40
2018-11-25T22:58:13.591Z,5.40
2018-11-25T23:00:42.409Z,5.40
2018-11-25T23:03:10.992Z,5.40
2018-11-25T23:05:50.864Z,5.30
2018-11-25T23:08:19.294Z,5.30
2018-11-25T23:10:47.896Z,5.30
2018-11-25T23:13:16.293Z,5.30
2018-11-25T23:15:44.850Z,5.30
2018-11-25T23:18:13.291Z,5.40
2018-11-25T23:20:41.735Z,5.40
2018-11-25T23:23:10.259Z,5.40
2018-11-25T23:25:38.712Z,5.40
2018-11-25T23:28:07.629Z,5.30
2018-11-25T23:30:36.098Z,5.30
2018-11-25T23:33:04.543Z,5.30
2018-11-25T23:35:33.862Z,5.30
2018-11-25T23:38:02.432Z,5.30
2018-11-25T23:40:30.887Z,5.30
2018-11-25T23:42:59.288Z,5.30
2018-11-25T23:45:27.782Z,5.30
2018-11-25T23:47:56.275Z,5.20
2018-11-25T23:50:24.803Z,5.20
2018-11-25T23:52:53.237Z,5.20
2018-11-25T23:55:21.695Z,5.30
2018-11-25T23:57:50.185Z,5.30
